createdAt,value
2022-08-16T00:01:41.771Z,9.85
2022-08-16T00:04:13.117Z,10.65
2022-08-16T00:06:44.980Z,9.48
2022-08-16T00:09:16.264Z,9.77
2022-08-16T00:11:52.607Z,10.70
2022-08-16T00:14:31.320Z,10.60
2022-08-16T00:17:15.835Z,11.38
2022-08-16T00:19:53.623Z,10.43
2022-08-16T00:22:27.901Z,10.25
2022-08-16T00:25:00.453Z,10.40
2022-08-16T00:27:31.521Z,10.10
2022-08-16T00:30:09.369Z,10.18
2022-08-16T00:32:54.029Z,10.00
2022-08-16T00:35:35.404Z,9.55
2022-08-16T00:38:40.095Z,10.02
2022-08-16T00:41:01.546Z,10.68
2022-08-16T00:43:40.770Z,10.25
2022-08-16T00:47:02.220Z,9.55
2022-08-16T00:49:44.780Z,9.93
2022-08-16T00:52:29.643Z,10.02
2022-08-16T00:55:22.757Z,10.10
2022-08-16T00:57:59.939Z,9.55
2022-08-16T01:00:34.676Z,9.93
2022-08-16T01:03:12.657Z,10.00
2022-08-16T01:05:45.140Z,9.80
2022-08-16T01:08:35.862Z,9.50
2022-08-16T01:11:10.374Z,9.13
2022-08-16T01:13:44.754Z,9.10
2022-08-16T01:16:25.815Z,9.40
2022-08-16T01:19:03.518Z,9.57
2022-08-16T01:22:49.965Z,9.80
2022-08-16T01:27:34.435Z,9.00
2022-08-16T01:30:29.029Z,9.07
2022-08-16T01:33:15.565Z,9.40
2022-08-16T01:36:11.755Z,9.23
2022-08-16T01:38:51.226Z,9.35
2022-08-16T01:41:32.663Z,9.13
2022-08-16T01:44:13.720Z,9.48
2022-08-16T01:47:11.455Z,9.60
2022-08-16T01:50:42.001Z,9.38
2022-08-16T01:55:23.165Z,8.85
2022-08-16T01:57:56.655Z,8.60
2022-08-16T02:00:31.313Z,8.50
2022-08-16T02:03:04.434Z,8.38
2022-08-16T02:05:35.588Z,9.55
2022-08-16T02:08:08.587Z,9.13
2022-08-16T02:11:00.146Z,8.82
2022-08-16T02:13:32.779Z,9.50
2022-08-16T02:18:35.887Z,9.20
2022-08-16T02:21:11.366Z,8.88
2022-08-16T02:23:43.415Z,9.80
2022-08-16T02:26:17.021Z,9.55
2022-08-16T02:28:50.864Z,9.25
2022-08-16T02:32:04.508Z,9.88
2022-08-16T02:34:16.036Z,9.38
2022-08-16T02:37:07.306Z,9.77
2022-08-16T02:39:38.902Z,9.43
2022-08-16T02:42:12.818Z,9.95
2022-08-16T02:44:44.525Z,9.55
2022-08-16T02:47:25.442Z,9.77
2022-08-16T02:50:30.594Z,9.40
2022-08-16T02:52:49.787Z,9.05
2022-08-16T02:55:41.040Z,9.23
2022-08-16T02:58:14.186Z,9.43
2022-08-16T03:01:37.312Z,9.93
2022-08-16T03:04:39.696Z,9.55
2022-08-16T03:07:16.064Z,9.32
2022-08-16T03:10:00.579Z,10.43
2022-08-16T03:12:36.670Z,9.77
2022-08-16T03:15:11.670Z,9.88
2022-08-16T03:17:53.268Z,10.18
2022-08-16T03:20:32.253Z,10.57
2022-08-16T03:23:07.888Z,10.13
2022-08-16T03:25:43.959Z,10.52
2022-08-16T03:28:17.822Z,10.77
2022-08-16T03:30:51.347Z,10.90
2022-08-16T03:33:25.353Z,10.77
2022-08-16T03:36:29.691Z,10.65
2022-08-16T03:38:59.440Z,10.18
2022-08-16T03:41:44.495Z,10.63
2022-08-16T03:44:43.792Z,9.45
2022-08-16T03:47:18.562Z,10.38
2022-08-16T03:50:26.223Z,10.27
2022-08-16T03:53:04.213Z,9.55
2022-08-16T03:55:45.307Z,9.43
2022-08-16T03:58:38.521Z,9.73
2022-08-16T04:01:12.025Z,10.25
2022-08-16T04:06:15.882Z,10.02
2022-08-16T04:08:47.415Z,10.07
2022-08-16T04:11:18.578Z,10.20
2022-08-16T04:14:00.408Z,10.32
2022-08-16T04:19:37.602Z,9.88
2022-08-16T04:22:22.029Z,9.80
2022-08-16T04:25:04.841Z,9.52
2022-08-16T04:27:41.308Z,9.35
2022-08-16T04:30:32.432Z,9.35
2022-08-16T04:33:08.684Z,8.90
2022-08-16T04:35:42.306Z,9.48
2022-08-16T04:38:21.751Z,9.52
2022-08-16T04:40:57.029Z,9.57
2022-08-16T04:43:29.709Z,9.98
2022-08-16T04:46:04.271Z,8.90
2022-08-16T04:48:56.775Z,8.93
2022-08-16T04:51:28.961Z,8.88
2022-08-16T04:54:27.805Z,8.80
2022-08-16T04:57:01.817Z,8.13
2022-08-16T04:59:34.491Z,9.10
2022-08-16T05:02:41.606Z,8.88
2022-08-16T05:04:58.017Z,9.23
2022-08-16T05:07:30.183Z,9.13
2022-08-16T05:10:19.678Z,8.98
2022-08-16T05:12:55.324Z,8.65
2022-08-16T05:15:29.762Z,8.48
2022-08-16T05:18:05.273Z,8.82
2022-08-16T05:20:56.967Z,8.82
2022-08-16T05:23:33.580Z,8.98
2022-08-16T05:28:55.174Z,7.75
2022-08-16T05:31:30.432Z,8.05
2022-08-16T05:34:04.909Z,7.60
2022-08-16T05:36:52.734Z,6.93
2022-08-16T05:39:28.652Z,7.43
2022-08-16T05:42:00.588Z,7.78
2022-08-16T05:44:31.991Z,8.00
2022-08-16T05:47:05.690Z,7.20
2022-08-16T05:49:40.079Z,8.13
2022-08-16T05:52:17.388Z,8.18
2022-08-16T05:55:01.062Z,8.50
2022-08-16T05:57:37.211Z,8.50
2022-08-16T06:00:20.393Z,8.00
2022-08-16T06:02:57.010Z,8.57
2022-08-16T06:06:00.698Z,8.30
2022-08-16T06:08:41.932Z,7.65
2022-08-16T06:11:14.070Z,7.72
2022-08-16T06:13:55.676Z,8.63
2022-08-16T06:16:41.792Z,7.50
2022-08-16T06:19:13.642Z,7.00
2022-08-16T06:22:19.391Z,6.55
2022-08-16T06:25:16.421Z,6.80
2022-08-16T06:27:57.313Z,6.65
2022-08-16T06:30:34.213Z,7.03
2022-08-16T06:33:05.968Z,6.80
2022-08-16T06:35:43.902Z,6.80
2022-08-16T06:38:36.339Z,7.30
2022-08-16T06:41:20.431Z,6.78
2022-08-16T06:43:53.935Z,7.22
2022-08-16T06:46:35.674Z,6.57
2022-08-16T06:49:16.088Z,7.25
2022-08-16T06:51:49.115Z,7.18
2022-08-16T06:54:27.155Z,6.80
2022-08-16T06:56:59.995Z,6.53
2022-08-16T06:59:31.427Z,6.80
2022-08-16T07:02:32.883Z,6.50
2022-08-16T07:05:14.857Z,6.78
2022-08-16T07:07:56.520Z,6.63
2022-08-16T07:10:30.518Z,6.30
2022-08-16T07:13:12.021Z,6.43
2022-08-16T07:15:50.679Z,6.63
2022-08-16T07:18:28.994Z,6.40
2022-08-16T07:21:02.475Z,6.30
2022-08-16T07:23:38.967Z,6.88
2022-08-16T07:26:25.374Z,6.78
2022-08-16T07:29:00.458Z,6.43
2022-08-16T07:31:37.840Z,5.85
2022-08-16T07:34:14.290Z,6.22
2022-08-16T07:36:58.055Z,6.25
2022-08-16T07:39:36.215Z,6.15
2022-08-16T07:42:20.092Z,6.35
2022-08-16T07:44:57.343Z,6.30
2022-08-16T07:47:51.159Z,5.93
2022-08-16T07:50:56.563Z,5.93
2022-08-16T07:53:43.800Z,5.88
2022-08-16T07:56:20.215Z,6.07
2022-08-16T07:58:55.616Z,6.05
2022-08-16T08:01:40.251Z,5.90
2022-08-16T08:04:40.448Z,6.05
2022-08-16T08:07:13.767Z,6.25
2022-08-16T08:09:48.628Z,6.32
2022-08-16T08:15:11.625Z,6.20
2022-08-16T08:17:46.216Z,5.50
2022-08-16T08:20:44.092Z,5.97
2022-08-16T08:23:31.541Z,5.80
2022-08-16T08:26:04.545Z,5.35
2022-08-16T08:28:40.567Z,5.85
2022-08-16T08:31:17.115Z,5.80
2022-08-16T08:33:51.597Z,5.50
2022-08-16T08:36:34.136Z,5.72
2022-08-16T08:39:17.350Z,5.80
2022-08-16T08:41:53.904Z,5.50
2022-08-16T08:44:28.562Z,5.32
2022-08-16T08:47:12.191Z,5.82
2022-08-16T08:49:46.099Z,6.03
2022-08-16T08:52:34.827Z,5.15
2022-08-16T08:55:12.958Z,5.53
2022-08-16T08:57:49.499Z,5.53
2022-08-16T09:00:30.095Z,5.78
2022-08-16T09:03:07.985Z,5.32
2022-08-16T09:05:46.612Z,5.00
2022-08-16T09:08:26.537Z,5.97
2022-08-16T09:11:03.990Z,5.72
2022-08-16T09:13:47.335Z,5.38
2022-08-16T09:17:01.173Z,5.30
2022-08-16T09:19:14.628Z,5.82
2022-08-16T09:21:46.531Z,5.65
2022-08-16T09:24:46.598Z,5.15
2022-08-16T09:27:19.538Z,5.07
2022-08-16T09:29:59.754Z,5.30
2022-08-16T09:32:32.867Z,5.38
2022-08-16T09:35:07.390Z,5.40
2022-08-16T09:37:38.765Z,5.70
2022-08-16T09:40:33.124Z,5.38
2022-08-16T09:43:02.966Z,4.78
2022-08-16T09:45:40.524Z,5.85
2022-08-16T09:48:44.215Z,6.03
2022-08-16T09:51:08.432Z,6.47
2022-08-16T09:53:43.121Z,5.78
2022-08-16T09:56:30.339Z,6.07
2022-08-16T09:59:08.582Z,5.28
2022-08-16T10:01:43.657Z,6.07
2022-08-16T10:04:30.927Z,5.47
2022-08-16T10:07:14.770Z,5.40
2022-08-16T10:09:55.260Z,5.30
2022-08-16T10:12:55.709Z,5.80
2022-08-16T10:15:30.490Z,5.18
2022-08-16T10:20:53.124Z,5.60
2022-08-16T10:23:31.096Z,5.68
2022-08-16T10:27:00.649Z,5.88
2022-08-16T10:29:20.048Z,5.13
2022-08-16T10:31:53.711Z,5.85
2022-08-16T10:34:31.092Z,5.13
2022-08-16T10:37:05.399Z,5.45
2022-08-16T10:39:41.706Z,5.38
2022-08-16T10:42:14.436Z,5.40
2022-08-16T10:44:53.955Z,5.68
2022-08-16T10:47:28.226Z,5.28
2022-08-16T10:50:04.028Z,5.20
2022-08-16T10:58:11.744Z,5.35
2022-08-16T11:00:46.213Z,5.57
2022-08-16T11:06:12.209Z,5.10
2022-08-16T11:08:45.805Z,6.18
2022-08-16T11:12:13.266Z,6.38
2022-08-16T11:14:28.876Z,6.75
2022-08-16T11:17:09.544Z,6.25
2022-08-16T11:20:41.179Z,6.93
2022-08-16T11:22:57.734Z,5.82
2022-08-16T11:31:14.427Z,6.70
2022-08-16T11:33:54.965Z,7.57
2022-08-16T11:36:28.259Z,7.68
2022-08-16T11:39:04.568Z,7.50
2022-08-16T11:41:43.701Z,7.63
2022-08-16T11:47:05.633Z,7.93
2022-08-16T11:49:36.912Z,7.88
2022-08-16T11:52:08.890Z,8.25
2022-08-16T11:54:41.672Z,8.80
2022-08-16T11:57:25.690Z,9.68
2022-08-16T11:59:58.564Z,9.27
2022-08-16T12:02:33.035Z,9.00
2022-08-16T12:05:04.531Z,11.23
2022-08-16T12:07:36.733Z,10.95
2022-08-16T12:10:16.450Z,9.63
2022-08-16T12:12:49.212Z,11.43
2022-08-16T12:16:03.634Z,11.60
2022-08-16T12:18:54.332Z,11.77
2022-08-16T12:21:26.872Z,10.88
2022-08-16T12:24:08.391Z,12.00
2022-08-16T12:26:40.310Z,11.48
2022-08-16T12:29:11.735Z,12.13
2022-08-16T12:31:59.279Z,11.95
2022-08-16T12:34:36.483Z,11.48
2022-08-16T12:37:10.790Z,12.15
2022-08-16T12:39:50.847Z,13.05
2022-08-16T12:42:35.405Z,13.02
2022-08-16T12:45:51.832Z,12.23
2022-08-16T12:48:48.305Z,11.88
2022-08-16T12:51:26.746Z,12.30
2022-08-16T12:54:09.216Z,11.82
2022-08-16T12:57:22.955Z,12.13
2022-08-16T12:59:57.239Z,12.32
2022-08-16T13:02:33.822Z,11.85
2022-08-16T13:05:30.651Z,12.38
2022-08-16T13:08:02.122Z,12.27
2022-08-16T13:10:37.827Z,11.63
2022-08-16T13:13:11.565Z,12.15
2022-08-16T13:15:55.834Z,11.85
2022-08-16T13:18:34.068Z,11.98
2022-08-16T13:21:10.634Z,11.63
2022-08-16T13:23:43.387Z,11.73
2022-08-16T13:26:18.774Z,11.57
2022-08-16T13:28:50.348Z,12.07
2022-08-16T13:31:21.846Z,11.27
2022-08-16T13:33:58.919Z,11.60
2022-08-16T13:36:48.479Z,11.85
2022-08-16T13:39:24.539Z,11.50
2022-08-16T13:41:56.228Z,11.65
2022-08-16T13:44:48.387Z,11.18
2022-08-16T13:47:19.915Z,12.23
2022-08-16T13:50:12.493Z,10.73
2022-08-16T13:52:45.071Z,11.60
2022-08-16T13:55:18.142Z,11.40
2022-08-16T13:58:34.289Z,11.63
2022-08-16T14:01:00.936Z,10.75
2022-08-16T14:03:34.456Z,11.07
2022-08-16T14:06:05.904Z,11.55
2022-08-16T14:08:37.621Z,11.45
2022-08-16T14:11:17.776Z,11.52
2022-08-16T14:13:52.051Z,11.48
2022-08-16T14:16:33.659Z,11.07
2022-08-16T14:19:09.590Z,11.43
2022-08-16T14:21:53.433Z,11.48
2022-08-16T14:24:31.545Z,11.07
2022-08-16T14:27:09.194Z,10.57
2022-08-16T14:29:44.375Z,11.20
2022-08-16T14:32:32.470Z,11.88
2022-08-16T14:35:17.164Z,10.98
2022-08-16T14:38:10.796Z,10.65
2022-08-16T14:40:55.602Z,11.75
2022-08-16T14:43:46.968Z,10.90
2022-08-16T14:46:18.523Z,11.27
2022-08-16T14:48:51.140Z,10.97
2022-08-16T14:51:27.406Z,10.77
2022-08-16T14:54:02.940Z,10.50
2022-08-16T14:56:38.611Z,11.23
2022-08-16T14:59:14.601Z,10.88
2022-08-16T15:01:59.359Z,12.30
2022-08-16T15:04:40.493Z,11.57
2022-08-16T15:07:21.598Z,11.30
2022-08-16T15:10:00.539Z,9.82
2022-08-16T15:12:36.915Z,11.88
2022-08-16T15:15:16.492Z,11.13
2022-08-16T15:18:12.132Z,11.70
2022-08-16T15:21:05.051Z,11.80
2022-08-16T15:23:41.527Z,11.55
2022-08-16T15:26:29.596Z,12.83
2022-08-16T15:29:08.263Z,11.43
2022-08-16T15:31:45.806Z,11.05
2022-08-16T15:34:43.400Z,11.55
2022-08-16T15:37:42.864Z,11.02
2022-08-16T15:40:32.206Z,11.18
2022-08-16T15:43:10.949Z,10.93
2022-08-16T15:46:35.013Z,11.35
2022-08-16T15:49:12.416Z,10.75
2022-08-16T15:51:46.395Z,10.73
2022-08-16T15:54:30.123Z,11.02
2022-08-16T15:57:11.530Z,11.07
2022-08-16T15:59:48.486Z,11.30
2022-08-16T16:02:41.596Z,11.00
2022-08-16T16:05:14.524Z,11.10
2022-08-16T16:07:55.837Z,11.07
2022-08-16T16:10:30.155Z,10.27
2022-08-16T16:13:05.300Z,10.30
2022-08-16T16:16:03.763Z,10.52
2022-08-16T16:18:41.956Z,11.02
2022-08-16T16:21:20.975Z,10.82
2022-08-16T16:26:55.982Z,10.43
2022-08-16T16:30:11.343Z,10.48
2022-08-16T16:33:01.931Z,10.63
2022-08-16T16:35:37.411Z,10.85
2022-08-16T16:38:08.637Z,10.60
2022-08-16T16:40:46.381Z,11.00
2022-08-16T16:43:31.995Z,10.45
2022-08-16T16:46:40.651Z,10.60
2022-08-16T16:49:21.160Z,10.20
2022-08-16T16:51:52.762Z,10.73
2022-08-16T16:54:31.271Z,10.65
2022-08-16T16:57:42.382Z,11.90
2022-08-16T17:00:30.074Z,10.57
2022-08-16T17:03:32.146Z,11.20
2022-08-16T17:06:09.242Z,11.30
2022-08-16T17:08:44.148Z,10.80
2022-08-16T17:11:19.071Z,10.38
2022-08-16T17:14:13.844Z,10.95
2022-08-16T17:17:13.227Z,10.98
2022-08-16T17:19:44.998Z,10.13
2022-08-16T17:22:19.630Z,10.20
2022-08-16T17:24:56.357Z,10.32
2022-08-16T17:27:32.353Z,10.27
2022-08-16T17:30:16.478Z,10.52
2022-08-16T17:32:57.434Z,10.23
2022-08-16T17:35:43.062Z,10.98
2022-08-16T17:38:16.807Z,10.80
2022-08-16T17:41:08.965Z,10.10
2022-08-16T17:43:44.160Z,10.27
2022-08-16T17:46:50.770Z,10.05
2022-08-16T17:49:09.341Z,10.57
2022-08-16T17:51:40.585Z,10.48
2022-08-16T17:54:20.587Z,9.63
2022-08-16T17:57:02.970Z,10.25
2022-08-16T17:59:54.362Z,10.02
2022-08-16T18:02:43.776Z,10.15
2022-08-16T18:05:36.359Z,9.55
2022-08-16T18:08:10.087Z,10.82
2022-08-16T18:10:41.932Z,10.10
2022-08-16T18:13:13.945Z,10.13
2022-08-16T18:15:46.430Z,9.80
2022-08-16T18:18:21.838Z,10.00
2022-08-16T18:21:11.731Z,10.35
2022-08-16T18:23:42.892Z,8.90
2022-08-16T18:26:14.266Z,10.30
2022-08-16T18:28:45.551Z,9.55
2022-08-16T18:31:17.042Z,9.50
2022-08-16T18:33:48.309Z,9.88
2022-08-16T18:36:19.920Z,9.75
2022-08-16T18:38:54.000Z,10.30
2022-08-16T18:41:27.811Z,10.57
2022-08-16T18:44:26.694Z,11.82
2022-08-16T18:46:52.125Z,11.13
2022-08-16T18:49:23.146Z,11.90
2022-08-16T18:51:59.454Z,10.10
2022-08-16T18:54:33.102Z,10.48
2022-08-16T18:57:07.878Z,9.90
2022-08-16T18:59:42.554Z,11.50
2022-08-16T19:02:42.912Z,10.20
2022-08-16T19:05:07.641Z,9.60
2022-08-16T19:07:39.637Z,13.35
2022-08-16T19:10:11.765Z,11.55
2022-08-16T19:12:42.971Z,9.77
2022-08-16T19:15:18.791Z,9.77
2022-08-16T19:20:35.255Z,11.13
2022-08-16T19:23:09.832Z,10.02
2022-08-16T19:25:48.347Z,9.93
2022-08-16T19:28:50.949Z,8.80
2022-08-16T19:31:28.113Z,9.38
2022-08-16T19:34:02.525Z,9.18
2022-08-16T19:36:37.445Z,10.30
2022-08-16T19:39:32.825Z,10.10
2022-08-16T19:42:16.458Z,9.68
2022-08-16T19:44:49.489Z,9.65
2022-08-16T19:47:20.809Z,10.73
2022-08-16T19:49:52.880Z,10.48
2022-08-16T19:52:28.005Z,10.23
2022-08-16T19:55:06.162Z,9.82
2022-08-16T19:57:58.153Z,9.70
2022-08-16T20:00:35.282Z,9.95
2022-08-16T20:03:14.699Z,10.05
2022-08-16T20:05:46.890Z,8.88
2022-08-16T20:08:18.321Z,10.73
2022-08-16T20:10:51.122Z,10.50
2022-08-16T20:13:25.659Z,11.20
2022-08-16T20:16:17.568Z,10.63
2022-08-16T20:18:49.281Z,9.70
2022-08-16T20:21:20.910Z,10.48
2022-08-16T20:23:54.073Z,11.43
2022-08-16T20:26:30.915Z,10.55
2022-08-16T20:29:02.324Z,9.52
2022-08-16T20:31:33.558Z,10.27
2022-08-16T20:34:04.907Z,9.98
2022-08-16T20:36:55.890Z,10.68
2022-08-16T20:39:27.211Z,10.15
2022-08-16T20:41:58.451Z,9.15
2022-08-16T20:44:29.764Z,10.18
2022-08-16T20:47:01.000Z,9.70
2022-08-16T20:49:32.316Z,10.13
2022-08-16T20:52:03.864Z,10.05
2022-08-16T20:54:35.272Z,9.98
2022-08-16T20:57:07.908Z,9.50
2022-08-16T20:59:58.932Z,9.30
2022-08-16T21:02:49.967Z,9.93
2022-08-16T21:05:31.863Z,9.85
2022-08-16T21:08:08.235Z,10.15
2022-08-16T21:10:55.138Z,11.98
2022-08-16T21:13:32.144Z,10.80
2022-08-16T21:16:04.400Z,9.45
2022-08-16T21:18:35.794Z,9.73
2022-08-16T21:21:07.056Z,10.40
2022-08-16T21:23:39.128Z,10.13
2022-08-16T21:26:11.046Z,10.43
2022-08-16T21:28:43.567Z,10.00
2022-08-16T21:31:17.138Z,11.73
2022-08-16T21:33:55.266Z,11.43
2022-08-16T21:36:35.955Z,11.20
2022-08-16T21:39:09.460Z,9.57
2022-08-16T21:41:41.701Z,10.32
2022-08-16T21:44:12.796Z,9.38
2022-08-16T21:46:44.066Z,10.07
2022-08-16T21:49:15.320Z,11.50
2022-08-16T21:51:46.682Z,9.77
2022-08-16T21:54:18.192Z,9.13
2022-08-16T21:56:49.321Z,9.85
2022-08-16T21:59:20.686Z,9.35
2022-08-16T22:01:51.991Z,9.80
2022-08-16T22:04:37.730Z,9.57
2022-08-16T22:07:10.892Z,9.82
2022-08-16T22:09:42.568Z,9.98
2022-08-16T22:12:24.901Z,9.48
2022-08-16T22:14:56.309Z,9.98
2022-08-16T22:17:47.075Z,9.70
2022-08-16T22:20:18.297Z,8.88
2022-08-16T22:22:49.787Z,9.60
2022-08-16T22:25:21.589Z,9.45
2022-08-16T22:27:52.894Z,9.32
2022-08-16T22:30:24.231Z,9.50
2022-08-16T22:32:55.439Z,9.95
2022-08-16T22:35:26.857Z,9.38
2022-08-16T22:38:47.762Z,10.32
2022-08-16T22:40:50.595Z,9.45
2022-08-16T22:43:22.987Z,9.75
2022-08-16T22:45:54.216Z,9.57
2022-08-16T22:48:45.026Z,8.77
2022-08-16T22:51:16.206Z,8.68
2022-08-16T22:53:47.714Z,9.88
2022-08-16T22:56:19.581Z,8.65
2022-08-16T22:58:51.008Z,9.30
2022-08-16T23:01:24.678Z,9.70
2022-08-16T23:09:00.649Z,9.00
2022-08-16T23:11:35.914Z,9.10
2022-08-16T23:14:08.456Z,9.82
2022-08-16T23:16:40.178Z,10.00
2022-08-16T23:19:14.079Z,10.18
2022-08-16T23:21:48.542Z,10.40
2022-08-16T23:24:21.808Z,10.02
2022-08-16T23:26:53.050Z,8.77
2022-08-16T23:29:26.675Z,8.57
2022-08-16T23:32:28.677Z,9.25
2022-08-16T23:35:21.598Z,8.38
2022-08-16T23:37:56.171Z,8.75
2022-08-16T23:43:30.378Z,8.38
2022-08-16T23:46:05.421Z,9.00
2022-08-16T23:49:57.793Z,9.20
2022-08-16T23:54:34.723Z,9.02
2022-08-16T23:57:06.700Z,9.20
2022-08-16T23:59:52.354Z,10.63
